Flight Track Log - Related Links

Times and Time Zones

All times are in EDT time to prevent confusion due to time zone crossing. See the UCA597 flight status page for this flight to view local times or setup timezone preferences in your user account.

Time Position Orientation Groundspeed Altitude Reporting Facility
EDT Latitude Longitude Course Direction KTS MPH feet Rate Location/Type
Tue 05:38:22 PM 38.9667 -77.4333 339° North 122 140 1,500  Level Potomac TRACON
Tue 05:39:16 PM 39.0000 -77.4500 339° North 165 190 2,800 1,600 Climbing Potomac TRACON
Tue 05:40:22 PM 39.0500 -77.4667 345° North 169 194 4,700 1,453 Climbing Potomac TRACON
Tue 05:42:26 PM 39.1358 -77.4969 345° North 177 204 7,400 1,326 Climbing Washington Center
Tue 05:43:23 PM 39.1836 -77.5061 352° North 172 198 8,700 1,210 Climbing Washington Center
Tue 05:44:25 PM 39.2339 -77.4967 North 172 198 9,800 1,253 Climbing Washington Center
Tue 05:46:25 PM 39.3383 -77.4889 North 193 222 12,500 1,382 Climbing Washington Center
Tue 05:47:23 PM 39.3925 -77.4822 North 193 222 13,900 1,273 Climbing Washington Center
Tue 05:49:10 PM 39.4872 -77.4750 North 199 229 16,000 1,114 Climbing New York Center
Tue 05:50:10 PM 39.5481 -77.4675 North 199 229 17,000 504 Climbing New York Center
Tue 05:51:09 PM 39.6175 -77.4578 North 214 246 17,000  Level New York Center
Tue 05:52:10 PM 39.6822 -77.4533 North 246 283 17,000  Level New York Center
Tue 05:53:10 PM 39.7644 -77.4394 North 261 300 17,000  Level New York Center
Tue 05:54:09 PM 39.8311 -77.4025 23° Northeast 274 315 17,000  Level New York Center
Tue 05:55:10 PM 39.9106 -77.3611 22° Northeast 279 321 17,000  Level New York Center
Tue 05:56:10 PM 39.9769 -77.3294 20° North 279 321 17,000  Level New York Center
Tue 05:57:10 PM 40.0586 -77.2856 22° Northeast 279 321 17,000  Level New York Center
Tue 05:58:10 PM 40.1253 -77.2511 22° Northeast 279 321 17,000  Level New York Center
Tue 05:59:10 PM 40.2069 -77.2072 22° Northeast 279 321 17,000  Level New York Center
Tue 06:00:10 PM 40.2711 -77.1750 21° North 279 321 17,000  Level New York Center
Tue 06:01:10 PM 40.3508 -77.1306 23° Northeast 279 321 17,000  Level New York Center
Tue 06:02:10 PM 40.4172 -77.0958 22° Northeast 279 321 17,000  Level New York Center
Tue 06:03:10 PM 40.4967 -77.0511 23° Northeast 279 321 17,000  Level New York Center
Tue 06:04:10 PM 40.5650 -77.0192 20° North 279 321 17,000  Level New York Center
Tue 06:05:10 PM 40.6422 -76.9769 23° Northeast 274 315 17,000  Level New York Center
Tue 06:06:10 PM 40.7067 -76.9417 23° Northeast 274 315 17,000  Level New York Center
Tue 06:07:10 PM 40.7861 -76.8994 22° Northeast 274 315 17,000  Level New York Center
Tue 06:08:10 PM 40.8503 -76.8642 23° Northeast 280 322 17,000  Level New York Center
Tue 06:09:10 PM 40.9297 -76.8217 22° Northeast 280 322 17,000 -350 Level New York Center
Tue 06:10:10 PM 40.9939 -76.7861 23° Northeast 275 316 16,300 -807 Descending New York Center
Tue 06:11:09 PM 41.0711 -76.7436 23° Northeast 281 323 15,400 -900 Descending New York Center
Tue 06:12:10 PM 41.1439 -76.7031 23° Northeast 281 323 14,500 -992 Descending New York Center
Tue 06:13:10 PM 41.2256 -76.6550 24° Northeast 281 323 13,400 -750 Descending New York Center
Tue 06:14:10 PM 41.3003 -76.6175 21° North 281 323 13,000 -200 Descending New York Center
Tue 06:15:10 PM 41.3689 -76.5792 23° Northeast 271 312 13,000  Level New York Center
Tue 06:16:10 PM 41.4272 -76.5400 27° Northeast 266 306 13,000  Level New York Center
Tue 06:17:10 PM 41.4919 -76.4928 29° Northeast 266 306 13,000  Level New York Center
Tue 06:18:10 PM 41.5608 -76.4461 27° Northeast 261 300 13,000 -550 Level New York Center
Tue 06:19:10 PM 41.6278 -76.3961 29° Northeast 266 306 11,900 -1,150 Descending New York Center
Tue 06:20:10 PM 41.6989 -76.3467 27° Northeast 278 320 10,700 -1,150 Descending New York Center
Tue 06:21:10 PM 41.7611 -76.3044 27° Northeast 273 314 9,600 -1,250 Descending New York Center
Tue 06:22:10 PM 41.8367 -76.2467 30° Northeast 273 314 8,200 -1,250 Descending New York Center
Tue 06:23:10 PM 41.8939 -76.1819 40° Northeast 273 314 7,100 -1,150 Descending New York Center
Tue 06:24:10 PM 41.9447 -76.1136 45° Northeast 259 298 5,900 -950 Descending New York Center
Tue 06:25:10 PM 41.9953 -76.0561 40° Northeast 259 298 5,200 -550 Descending New York Center
Tue 06:26:10 PM 42.0567 -75.9856 40° Northeast 259 298 4,800 -400 Descending New York Center
Tue 06:27:10 PM 42.1089 -75.9311 38° Northeast 252 290 4,400 -750 Descending New York Center
Tue 06:28:10 PM 42.1486 -75.9314 360° North 176 203 3,300 -1,150 Descending New York Center
Tue 06:29:10 PM 42.1828 -75.9592 329° Northwest 144 166 2,100 -600 Descending New York Center
Tue 06:30:10 PM 42.2158 -75.9619 356° North 144 166 2,100 3,450 Level New York Center
Tue 06:31:10 PM 42.2531 -75.9703 351° North 144 166 9,000 6,900 Climbing New York Center
Tue 06:33:00 PM 42.2084 -75.9796 270° West  Level Estimated
Tue 06:40:00 PM 42.2084 -75.9796 270° West  Level Estimated

Login

Don't have an account? Register now (free) for customized features, flight alerts, and more!